sensor_id;sensor_type;location;lat;lon;timestamp;pressure;altitude;pressure_sealevel;temperature;humidity
45357;BME280;31092;51.924;21.448;2022-09-01T00:02:19;100641.47;;;11.34;100.00
45357;BME280;31092;51.924;21.448;2022-09-01T00:04:45;100713.50;;;11.75;100.00
45357;BME280;31092;51.924;21.448;2022-09-01T00:07:12;100731.22;;;11.78;100.00
45357;BME280;31092;51.924;21.448;2022-09-01T00:09:38;100730.22;;;11.79;100.00
45357;BME280;31092;51.924;21.448;2022-09-01T00:12:06;100686.25;;;11.53;100.00
45357;BME280;31092;51.924;21.448;2022-09-01T00:14:36;100751.63;;;11.81;100.00
45357;BME280;31092;51.924;21.448;2022-09-01T00:17:05;100736.25;;;11.73;100.00
45357;BME280;31092;51.924;21.448;2022-09-01T00:19:32;100640.13;;;11.03;100.00
45357;BME280;31092;51.924;21.448;2022-09-01T00:22:00;100655.81;;;11.08;100.00
45357;BME280;31092;51.924;21.448;2022-09-01T00:24:26;100654.59;;;11.02;100.00
45357;BME280;31092;51.924;21.448;2022-09-01T00:26:53;100676.16;;;11.02;100.00
45357;BME280;31092;51.924;21.448;2022-09-01T00:29:19;100649.59;;;10.82;100.00
45357;BME280;31092;51.924;21.448;2022-09-01T00:31:45;100731.25;;;11.26;100.00
45357;BME280;31092;51.924;21.448;2022-09-01T00:34:11;100648.66;;;10.73;100.00
45357;BME280;31092;51.924;21.448;2022-09-01T00:36:36;100705.75;;;10.94;100.00
45357;BME280;31092;51.924;21.448;2022-09-01T00:39:04;100667.00;;;10.69;100.00
45357;BME280;31092;51.924;21.448;2022-09-01T00:41:32;100739.56;;;11.07;100.00
45357;BME280;31092;51.924;21.448;2022-09-01T00:44:01;100731.41;;;10.98;100.00
45357;BME280;31092;51.924;21.448;2022-09-01T00:46:42;100652.47;;;10.44;100.00
45357;BME280;31092;51.924;21.448;2022-09-01T00:49:21;100734.50;;;10.86;100.00
45357;BME280;31092;51.924;21.448;2022-09-01T00:51:52;100740.88;;;10.85;100.00
45357;BME280;31092;51.924;21.448;2022-09-01T00:54:22;100735.91;;;10.72;100.00
45357;BME280;31092;51.924;21.448;2022-09-01T00:56:49;100707.28;;;10.53;100.00
45357;BME280;31092;51.924;21.448;2022-09-01T00:59:16;100655.44;;;10.05;100.00
45357;BME280;31092;51.924;21.448;2022-09-01T01:01:43;100682.06;;;10.08;100.00
45357;BME280;31092;51.924;21.448;2022-09-01T01:04:09;100729.25;;;10.30;100.00
45357;BME280;31092;51.924;21.448;2022-09-01T01:06:51;100645.88;;;9.75;100.00
45357;BME280;31092;51.924;21.448;2022-09-01T01:09:24;100664.06;;;9.81;100.00
45357;BME280;31092;51.924;21.448;2022-09-01T01:11:51;100650.69;;;9.72;100.00
45357;BME280;31092;51.924;21.448;2022-09-01T01:14:17;100674.00;;;9.81;100.00
45357;BME280;31092;51.924;21.448;2022-09-01T01:16:46;100742.34;;;10.25;100.00
45357;BME280;31092;51.924;21.448;2022-09-01T01:19:45;100750.41;;;10.25;100.00
45357;BME280;31092;51.924;21.448;2022-09-01T01:25:54;100736.75;;;9.99;100.00
45357;BME280;31092;51.924;21.448;2022-09-01T01:28:27;100654.22;;;9.45;100.00
45357;BME280;31092;51.924;21.448;2022-09-01T01:31:01;100747.31;;;9.93;100.00
45357;BME280;31092;51.924;21.448;2022-09-01T01:33:42;100651.28;;;9.38;100.00
45357;BME280;31092;51.924;21.448;2022-09-01T01:36:16;100646.50;;;9.32;100.00
45357;BME280;31092;51.924;21.448;2022-09-01T01:38:46;100656.13;;;9.25;100.00
45357;BME280;31092;51.924;21.448;2022-09-01T01:41:13;100629.78;;;9.01;100.00
45357;BME280;31092;51.924;21.448;2022-09-01T01:43:40;100649.88;;;8.97;100.00
45357;BME280;31092;51.924;21.448;2022-09-01T01:46:07;100669.53;;;8.87;100.00
45357;BME280;31092;51.924;21.448;2022-09-01T01:48:37;100742.59;;;9.20;100.00
45357;BME280;31092;51.924;21.448;2022-09-01T01:51:04;100737.94;;;9.03;100.00
45357;BME280;31092;51.924;21.448;2022-09-01T01:53:31;100648.97;;;8.39;100.00
45357;BME280;31092;51.924;21.448;2022-09-01T01:55:56;100650.06;;;8.27;100.00
45357;BME280;31092;51.924;21.448;2022-09-01T01:58:24;100663.47;;;8.27;100.00
45357;BME280;31092;51.924;21.448;2022-09-01T02:00:52;100678.28;;;8.22;100.00
45357;BME280;31092;51.924;21.448;2022-09-01T02:03:20;100745.31;;;8.43;100.00
45357;BME280;31092;51.924;21.448;2022-09-01T02:05:49;100656.81;;;7.83;100.00
45357;BME280;31092;51.924;21.448;2022-09-01T02:08:17;100729.84;;;8.25;100.00
45357;BME280;31092;51.924;21.448;2022-09-01T02:10:47;100704.41;;;8.10;100.00
45357;BME280;31092;51.924;21.448;2022-09-01T02:13:15;100698.34;;;8.08;100.00
45357;BME280;31092;51.924;21.448;2022-09-01T02:15:46;100651.44;;;7.92;100.00
45357;BME280;31092;51.924;21.448;2022-09-01T02:20:41;100748.16;;;8.60;100.00
45357;BME280;31092;51.924;21.448;2022-09-01T02:23:07;100747.88;;;8.73;100.00
45357;BME280;31092;51.924;21.448;2022-09-01T02:25:37;100649.06;;;8.28;100.00
45357;BME280;31092;51.924;21.448;2022-09-01T02:28:03;100743.03;;;8.96;100.00
45357;BME280;31092;51.924;21.448;2022-09-01T02:30:30;100663.22;;;8.59;100.00
45357;BME280;31092;51.924;21.448;2022-09-01T02:32:58;100741.06;;;9.08;100.00
45357;BME280;31092;51.924;21.448;2022-09-01T02:35:25;100654.31;;;8.59;100.00
45357;BME280;31092;51.924;21.448;2022-09-01T02:37:59;100612.94;;;8.42;100.00
45357;BME280;31092;51.924;21.448;2022-09-01T02:40:26;100711.22;;;9.01;100.00
45357;BME280;31092;51.924;21.448;2022-09-01T02:42:55;100737.38;;;9.19;100.00
45357;BME280;31092;51.924;21.448;2022-09-01T02:45:21;100733.84;;;9.18;100.00
45357;BME280;31092;51.924;21.448;2022-09-01T02:47:48;100641.19;;;8.56;100.00
45357;BME280;31092;51.924;21.448;2022-09-01T02:50:15;100731.44;;;8.96;100.00
45357;BME280;31092;51.924;21.448;2022-09-01T02:52:44;100645.97;;;8.43;100.00
45357;BME280;31092;51.924;21.448;2022-09-01T02:55:13;100728.53;;;8.79;100.00
45357;BME280;31092;51.924;21.448;2022-09-01T02:57:41;100752.53;;;8.81;100.00
45357;BME280;31092;51.924;21.448;2022-09-01T03:00:08;100689.19;;;8.20;100.00
45357;BME280;31092;51.924;21.448;2022-09-01T03:02:47;100731.47;;;8.37;100.00
45357;BME280;31092;51.924;21.448;2022-09-01T03:05:13;100651.13;;;7.76;100.00
45357;BME280;31092;51.924;21.448;2022-09-01T03:07:40;100655.47;;;7.67;100.00
45357;BME280;31092;51.924;21.448;2022-09-01T03:10:07;100694.03;;;7.76;100.00
45357;BME280;31092;51.924;21.448;2022-09-01T03:12:34;100757.03;;;7.91;100.00
45357;BME280;31092;51.924;21.448;2022-09-01T03:15:00;100697.16;;;7.41;100.00
45357;BME280;31092;51.924;21.448;2022-09-01T03:17:25;100656.28;;;7.18;100.00
45357;BME280;31092;51.924;21.448;2022-09-01T03:19:50;100633.50;;;7.03;100.00
45357;BME280;31092;51.924;21.448;2022-09-01T03:22:16;100745.47;;;7.60;100.00
45357;BME280;31092;51.924;21.448;2022-09-01T03:24:42;100679.75;;;7.05;100.00
45357;BME280;31092;51.924;21.448;2022-09-01T03:27:07;100665.91;;;6.79;100.00
45357;BME280;31092;51.924;21.448;2022-09-01T03:29:36;100675.44;;;6.71;100.00
45357;BME280;31092;51.924;21.448;2022-09-01T03:32:03;100740.50;;;7.04;100.00
45357;BME280;31092;51.924;21.448;2022-09-01T03:34:28;100759.22;;;7.15;100.00
45357;BME280;31092;51.924;21.448;2022-09-01T03:36:58;100650.75;;;6.47;100.00
45357;BME280;31092;51.924;21.448;2022-09-01T03:39:24;100741.75;;;7.00;100.00
45357;BME280;31092;51.924;21.448;2022-09-01T03:41:49;100658.94;;;6.45;100.00
45357;BME280;31092;51.924;21.448;2022-09-01T03:44:15;100748.94;;;7.00;100.00
45357;BME280;31092;51.924;21.448;2022-09-01T03:46:41;100645.00;;;6.31;100.00
45357;BME280;31092;51.924;21.448;2022-09-01T03:49:07;100683.91;;;6.35;100.00
45357;BME280;31092;51.924;21.448;2022-09-01T03:51:37;100769.00;;;6.52;100.00
45357;BME280;31092;51.924;21.448;2022-09-01T03:54:03;100720.06;;;6.18;100.00
45357;BME280;31092;51.924;21.448;2022-09-01T03:56:28;100749.69;;;6.26;100.00
45357;BME280;31092;51.924;21.448;2022-09-01T03:58:56;100668.34;;;5.85;100.00
45357;BME280;31092;51.924;21.448;2022-09-01T04:01:27;100666.66;;;5.95;100.00
45357;BME280;31092;51.924;21.448;2022-09-01T04:03:53;100731.97;;;6.25;100.00
45357;BME280;31092;51.924;21.448;2022-09-01T04:06:18;100656.91;;;5.83;100.00
45357;BME280;31092;51.924;21.448;2022-09-01T04:08:45;100684.97;;;6.00;100.00
45357;BME280;31092;51.924;21.448;2022-09-01T04:11:16;100667.84;;;5.91;100.00
45357;BME280;31092;51.924;21.448;2022-09-01T04:13:48;100748.50;;;6.19;100.00
45357;BME280;31092;51.924;21.448;2022-09-01T04:16:28;100664.63;;;5.54;100.00
45357;BME280;31092;51.924;21.448;2022-09-01T04:19:14;100789.16;;;6.13;100.00
45357;BME280;31092;51.924;21.448;2022-09-01T04:21:47;100675.53;;;5.51;100.00
45357;BME280;31092;51.924;21.448;2022-09-01T04:24:14;100737.47;;;5.90;100.00
45357;BME280;31092;51.924;21.448;2022-09-01T04:26:41;100687.44;;;5.58;100.00
45357;BME280;31092;51.924;21.448;2022-09-01T04:29:08;100696.56;;;5.67;100.00
45357;BME280;31092;51.924;21.448;2022-09-01T04:31:36;100760.44;;;6.15;100.00
45357;BME280;31092;51.924;21.448;2022-09-01T04:34:03;100696.31;;;5.92;100.00
45357;BME280;31092;51.924;21.448;2022-09-01T04:36:35;100768.88;;;6.42;100.00
45357;BME280;31092;51.924;21.448;2022-09-01T04:39:02;100748.63;;;6.29;100.00
45357;BME280;31092;51.924;21.448;2022-09-01T04:41:35;100694.09;;;6.09;100.00
45357;BME280;31092;51.924;21.448;2022-09-01T04:44:03;100686.78;;;6.11;100.00
45357;BME280;31092;51.924;21.448;2022-09-01T04:46:32;100676.03;;;6.22;100.00
45357;BME280;31092;51.924;21.448;2022-09-01T04:49:00;100681.38;;;6.33;100.00
45357;BME280;31092;51.924;21.448;2022-09-01T04:51:31;100687.03;;;6.40;100.00
45357;BME280;31092;51.924;21.448;2022-09-01T04:53:57;100670.97;;;6.40;100.00
45357;BME280;31092;51.924;21.448;2022-09-01T04:56:24;100672.31;;;6.45;100.00
45357;BME280;31092;51.924;21.448;2022-09-01T04:58:51;100772.72;;;7.14;100.00
45357;BME280;31092;51.924;21.448;2022-09-01T05:01:23;100769.97;;;7.25;100.00
45357;BME280;31092;51.924;21.448;2022-09-01T05:03:49;100747.25;;;7.19;100.00
45357;BME280;31092;51.924;21.448;2022-09-01T05:06:23;100770.09;;;7.44;100.00
45357;BME280;31092;51.924;21.448;2022-09-01T05:08:49;100752.13;;;7.66;100.00
45357;BME280;31092;51.924;21.448;2022-09-01T05:11:16;100720.59;;;7.79;100.00
45357;BME280;31092;51.924;21.448;2022-09-01T05:13:44;100688.00;;;7.84;100.00
45357;BME280;31092;51.924;21.448;2022-09-01T05:16:11;100688.28;;;7.90;100.00
45357;BME280;31092;51.924;21.448;2022-09-01T05:18:43;100740.47;;;8.36;100.00
45357;BME280;31092;51.924;21.448;2022-09-01T05:21:15;100693.28;;;8.24;100.00
45357;BME280;31092;51.924;21.448;2022-09-01T05:23:43;100774.19;;;8.79;100.00
45357;BME280;31092;51.924;21.448;2022-09-01T05:26:14;100680.88;;;8.43;100.00
45357;BME280;31092;51.924;21.448;2022-09-01T05:28:43;100765.66;;;9.03;100.00
45357;BME280;31092;51.924;21.448;2022-09-01T05:31:09;100747.72;;;8.94;100.00
45357;BME280;31092;51.924;21.448;2022-09-01T05:33:36;100703.63;;;8.77;100.00
45357;BME280;31092;51.924;21.448;2022-09-01T05:36:11;100769.31;;;9.31;100.00
45357;BME280;31092;51.924;21.448;2022-09-01T05:38:37;100705.03;;;9.01;100.00
45357;BME280;31092;51.924;21.448;2022-09-01T05:41:07;100740.72;;;9.40;100.00
45357;BME280;31092;51.924;21.448;2022-09-01T05:43:34;100681.91;;;9.18;100.00
45357;BME280;31092;51.924;21.448;2022-09-01T05:46:05;100768.44;;;9.78;100.00
45357;BME280;31092;51.924;21.448;2022-09-01T05:48:31;100690.44;;;9.50;100.00
45357;BME280;31092;51.924;21.448;2022-09-01T05:51:05;100751.78;;;10.02;100.00
45357;BME280;31092;51.924;21.448;2022-09-01T05:53:32;100769.53;;;10.22;100.00
45357;BME280;31092;51.924;21.448;2022-09-01T05:55:59;100741.91;;;10.20;100.00
45357;BME280;31092;51.924;21.448;2022-09-01T05:58:26;100687.19;;;10.02;100.00
45357;BME280;31092;51.924;21.448;2022-09-01T06:00:53;100773.56;;;10.64;100.00
45357;BME280;31092;51.924;21.448;2022-09-01T06:03:21;100757.75;;;10.69;100.00
45357;BME280;31092;51.924;21.448;2022-09-01T06:05:49;100759.38;;;10.79;100.00
45357;BME280;31092;51.924;21.448;2022-09-01T06:08:22;100754.28;;;10.76;100.00
45357;BME280;31092;51.924;21.448;2022-09-01T06:10:49;100706.94;;;10.56;100.00
45357;BME280;31092;51.924;21.448;2022-09-01T06:13:17;100768.75;;;11.11;100.00
45357;BME280;31092;51.924;21.448;2022-09-01T06:15:50;100695.19;;;10.75;100.00
45357;BME280;31092;51.924;21.448;2022-09-01T06:18:19;100774.47;;;11.34;100.00
45357;BME280;31092;51.924;21.448;2022-09-01T06:20:46;100700.94;;;11.06;100.00
45357;BME280;31092;51.924;21.448;2022-09-01T06:23:13;100761.63;;;11.54;100.00
45357;BME280;31092;51.924;21.448;2022-09-01T06:25:41;100676.91;;;11.13;100.00
45357;BME280;31092;51.924;21.448;2022-09-01T06:28:13;100766.47;;;11.77;100.00
45357;BME280;31092;51.924;21.448;2022-09-01T06:30:39;100764.53;;;11.87;100.00
45357;BME280;31092;51.924;21.448;2022-09-01T06:33:05;100691.09;;;11.49;100.00
45357;BME280;31092;51.924;21.448;2022-09-01T06:35:39;100728.41;;;11.88;100.00
45357;BME280;31092;51.924;21.448;2022-09-01T06:38:07;100748.59;;;12.10;100.00
45357;BME280;31092;51.924;21.448;2022-09-01T06:40:34;100769.75;;;12.31;100.00
45357;BME280;31092;51.924;21.448;2022-09-01T06:43:00;100694.03;;;11.98;100.00
45357;BME280;31092;51.924;21.448;2022-09-01T06:45:33;100763.06;;;12.51;100.00
45357;BME280;31092;51.924;21.448;2022-09-01T06:47:59;100766.78;;;12.58;100.00
45357;BME280;31092;51.924;21.448;2022-09-01T06:50:26;100699.69;;;12.21;100.00
45357;BME280;31092;51.924;21.448;2022-09-01T06:52:52;100677.91;;;12.22;100.00
45357;BME280;31092;51.924;21.448;2022-09-01T06:55:26;100743.16;;;12.77;100.00
45357;BME280;31092;51.924;21.448;2022-09-01T06:57:56;100749.25;;;13.03;100.00
45357;BME280;31092;51.924;21.448;2022-09-01T07:00:23;100753.81;;;13.19;100.00
45357;BME280;31092;51.924;21.448;2022-09-01T07:02:55;100741.66;;;13.15;100.00
45357;BME280;31092;51.924;21.448;2022-09-01T07:05:22;100686.22;;;12.94;100.00
45357;BME280;31092;51.924;21.448;2022-09-01T07:07:49;100696.16;;;13.18;100.00
45357;BME280;31092;51.924;21.448;2022-09-01T07:10:17;100765.47;;;13.60;100.00
45357;BME280;31092;51.924;21.448;2022-09-01T07:12:51;100746.66;;;13.59;100.00
45357;BME280;31092;51.924;21.448;2022-09-01T07:15:17;100742.78;;;13.70;100.00
45357;BME280;31092;51.924;21.448;2022-09-01T07:18:02;100743.34;;;13.96;100.00
45357;BME280;31092;51.924;21.448;2022-09-01T07:20:27;100691.94;;;13.88;100.00
45357;BME280;31092;51.924;21.448;2022-09-01T07:22:56;100676.81;;;13.94;100.00
45357;BME280;31092;51.924;21.448;2022-09-01T07:25:22;100760.97;;;14.63;100.00
45357;BME280;31092;51.924;21.448;2022-09-01T07:27:47;100728.44;;;14.63;100.00
45357;BME280;31092;51.924;21.448;2022-09-01T07:30:19;100754.28;;;14.96;100.00
45357;BME280;31092;51.924;21.448;2022-09-01T07:32:45;100675.66;;;14.73;100.00
45357;BME280;31092;51.924;21.448;2022-09-01T07:35:13;100723.63;;;15.11;100.00
45357;BME280;31092;51.924;21.448;2022-09-01T07:37:40;100690.28;;;14.87;100.00
45357;BME280;31092;51.924;21.448;2022-09-01T07:40:09;100722.25;;;15.15;100.00
45357;BME280;31092;51.924;21.448;2022-09-01T07:42:35;100668.53;;;15.10;100.00
45357;BME280;31092;51.924;21.448;2022-09-01T07:45:04;100690.75;;;15.43;100.00
45357;BME280;31092;51.924;21.448;2022-09-01T07:47:33;100710.63;;;15.73;100.00
45357;BME280;31092;51.924;21.448;2022-09-01T07:50:04;100728.50;;;15.97;100.00
45357;BME280;31092;51.924;21.448;2022-09-01T07:52:34;100728.41;;;16.06;100.00
45357;BME280;31092;51.924;21.448;2022-09-01T07:55:00;100684.97;;;15.91;100.00
45357;BME280;31092;51.924;21.448;2022-09-01T07:57:26;100692.50;;;16.10;100.00
45357;BME280;31092;51.924;21.448;2022-09-01T07:59:51;100661.69;;;16.03;100.00
45357;BME280;31092;51.924;21.448;2022-09-01T08:02:20;100664.81;;;16.21;100.00
45357;BME280;31092;51.924;21.448;2022-09-01T08:04:46;100736.16;;;16.81;100.00
45357;BME280;31092;51.924;21.448;2022-09-01T08:07:13;100668.28;;;16.51;100.00
45357;BME280;31092;51.924;21.448;2022-09-01T08:09:39;100665.56;;;16.51;100.00
45357;BME280;31092;51.924;21.448;2022-09-01T08:12:05;100654.22;;;16.48;100.00
45357;BME280;31092;51.924;21.448;2022-09-01T08:14:31;100659.59;;;16.63;100.00
45357;BME280;31092;51.924;21.448;2022-09-01T08:16:57;100735.22;;;17.17;100.00
45357;BME280;31092;51.924;21.448;2022-09-01T08:19:23;100718.75;;;17.25;100.00
45357;BME280;31092;51.924;21.448;2022-09-01T08:21:49;100723.91;;;17.41;100.00
45357;BME280;31092;51.924;21.448;2022-09-01T08:24:14;100729.78;;;17.45;100.00
45357;BME280;31092;51.924;21.448;2022-09-01T08:26:40;100685.53;;;17.36;100.00
45357;BME280;31092;51.924;21.448;2022-09-01T08:29:05;100703.97;;;17.69;100.00
45357;BME280;31092;51.924;21.448;2022-09-01T08:31:31;100683.50;;;17.45;100.00
45357;BME280;31092;51.924;21.448;2022-09-01T08:33:58;100683.94;;;17.48;100.00
45357;BME280;31092;51.924;21.448;2022-09-01T08:36:24;100722.28;;;17.82;100.00
45357;BME280;31092;51.924;21.448;2022-09-01T08:38:50;100663.25;;;17.54;100.00
45357;BME280;31092;51.924;21.448;2022-09-01T08:47:08;100713.34;;;18.62;100.00
45357;BME280;31092;51.924;21.448;2022-09-01T08:49:35;100700.38;;;18.78;100.00
45357;BME280;31092;51.924;21.448;2022-09-01T08:52:13;100713.00;;;18.85;100.00
45357;BME280;31092;51.924;21.448;2022-09-01T08:55:21;100694.16;;;18.23;100.00
45357;BME280;31092;51.924;21.448;2022-09-01T08:57:54;100706.97;;;18.22;100.00
45357;BME280;31092;51.924;21.448;2022-09-01T09:00:32;100658.63;;;17.96;100.00
45357;BME280;31092;51.924;21.448;2022-09-01T09:03:42;100714.78;;;18.52;100.00
45357;BME280;31092;51.924;21.448;2022-09-01T09:06:12;100704.81;;;18.85;100.00
45357;BME280;31092;51.924;21.448;2022-09-01T09:09:00;100708.19;;;19.01;100.00
45357;BME280;31092;51.924;21.448;2022-09-01T09:15:04;100703.13;;;18.91;100.00
45357;BME280;31092;51.924;21.448;2022-09-01T09:17:38;100697.34;;;18.33;100.00
45357;BME280;31092;51.924;21.448;2022-09-01T09:20:06;100690.53;;;18.02;100.00
45357;BME280;31092;51.924;21.448;2022-09-01T09:22:33;100685.59;;;18.39;100.00
45357;BME280;31092;51.924;21.448;2022-09-01T09:25:03;100704.28;;;18.42;100.00
45357;BME280;31092;51.924;21.448;2022-09-01T09:27:38;100630.06;;;18.93;100.00
45357;BME280;31092;51.924;21.448;2022-09-01T09:30:25;100615.34;;;18.61;100.00
45357;BME280;31092;51.924;21.448;2022-09-01T09:33:06;100618.59;;;17.90;100.00
45357;BME280;31092;51.924;21.448;2022-09-01T09:35:40;100610.75;;;17.39;100.00
45357;BME280;31092;51.924;21.448;2022-09-01T09:41:03;100700.19;;;19.12;100.00
45357;BME280;31092;51.924;21.448;2022-09-01T09:43:35;100612.78;;;19.32;100.00
45357;BME280;31092;51.924;21.448;2022-09-01T09:48:46;100672.78;;;19.79;100.00
45357;BME280;31092;51.924;21.448;2022-09-01T09:51:19;100616.84;;;18.77;100.00
45357;BME280;31092;51.924;21.448;2022-09-01T09:53:47;100701.19;;;18.58;100.00
45357;BME280;31092;51.924;21.448;2022-09-01T09:56:21;100632.72;;;17.72;100.00
45357;BME280;31092;51.924;21.448;2022-09-01T09:58:51;100631.50;;;17.33;100.00
45357;BME280;31092;51.924;21.448;2022-09-01T10:03:54;100638.63;;;16.78;100.00
45357;BME280;31092;51.924;21.448;2022-09-01T10:06:31;100702.22;;;16.98;100.00
45357;BME280;31092;51.924;21.448;2022-09-01T10:08:59;100690.38;;;17.41;100.00
45357;BME280;31092;51.924;21.448;2022-09-01T10:11:35;100666.38;;;17.99;100.00
45357;BME280;31092;51.924;21.448;2022-09-01T10:14:15;100689.63;;;18.63;100.00
45357;BME280;31092;51.924;21.448;2022-09-01T10:17:04;100637.00;;;18.76;100.00
45357;BME280;31092;51.924;21.448;2022-09-01T10:20:12;100674.69;;;19.72;100.00
45357;BME280;31092;51.924;21.448;2022-09-01T10:22:39;100681.41;;;19.76;100.00
45357;BME280;31092;51.924;21.448;2022-09-01T10:25:07;100659.56;;;19.69;100.00
45357;BME280;31092;51.924;21.448;2022-09-01T10:27:39;100625.66;;;19.77;100.00
45357;BME280;31092;51.924;21.448;2022-09-01T10:30:18;100673.03;;;20.16;100.00
45357;BME280;31092;51.924;21.448;2022-09-01T10:32:59;100585.22;;;19.47;100.00
45357;BME280;31092;51.924;21.448;2022-09-01T10:35:28;100603.88;;;19.57;100.00
45357;BME280;31092;51.924;21.448;2022-09-01T10:40:54;100657.88;;;19.68;100.00
45357;BME280;31092;51.924;21.448;2022-09-01T10:43:52;100667.69;;;19.89;100.00
45357;BME280;31092;51.924;21.448;2022-09-01T10:46:42;100598.16;;;19.78;100.00
45357;BME280;31092;51.924;21.448;2022-09-01T10:49:27;100599.25;;;20.02;100.00
45357;BME280;31092;51.924;21.448;2022-09-01T10:52:08;100610.53;;;20.19;100.00
45357;BME280;31092;51.924;21.448;2022-09-01T10:54:50;100579.72;;;20.30;100.00
45357;BME280;31092;51.924;21.448;2022-09-01T11:00:42;100639.28;;;20.92;100.00
45357;BME280;31092;51.924;21.448;2022-09-01T11:06:07;100643.22;;;20.01;100.00
45357;BME280;31092;51.924;21.448;2022-09-01T11:11:19;100649.59;;;19.03;100.00
45357;BME280;31092;51.924;21.448;2022-09-01T11:14:16;100657.78;;;18.77;100.00
45357;BME280;31092;51.924;21.448;2022-09-01T11:20:38;100665.97;;;19.03;100.00
45357;BME280;31092;51.924;21.448;2022-09-01T11:23:10;100579.03;;;18.67;100.00
45357;BME280;31092;51.924;21.448;2022-09-01T11:25:43;100663.38;;;19.35;100.00
45357;BME280;31092;51.924;21.448;2022-09-01T11:30:50;100602.91;;;19.90;100.00
45357;BME280;31092;51.924;21.448;2022-09-01T11:43:18;100662.56;;;19.28;98.63
45357;BME280;31092;51.924;21.448;2022-09-01T11:46:29;100657.16;;;18.88;100.00
45357;BME280;31092;51.924;21.448;2022-09-01T11:51:48;100658.16;;;18.47;100.00
45357;BME280;31092;51.924;21.448;2022-09-01T11:54:42;100598.72;;;18.16;100.00
45357;BME280;31092;51.924;21.448;2022-09-01T11:57:29;100599.41;;;18.71;100.00
45357;BME280;31092;51.924;21.448;2022-09-01T11:59:57;100648.41;;;19.71;100.00
45357;BME280;31092;51.924;21.448;2022-09-01T12:02:28;100639.59;;;19.55;100.00
45357;BME280;31092;51.924;21.448;2022-09-01T12:04:56;100596.91;;;18.89;99.03
45357;BME280;31092;51.924;21.448;2022-09-01T12:07:41;100664.50;;;18.94;100.00
45357;BME280;31092;51.924;21.448;2022-09-01T12:13:18;100663.19;;;18.63;100.00
45357;BME280;31092;51.924;21.448;2022-09-01T12:15:55;100594.13;;;18.30;100.00
45357;BME280;31092;51.924;21.448;2022-09-01T12:18:23;100660.69;;;18.62;100.00
45357;BME280;31092;51.924;21.448;2022-09-01T12:21:00;100578.78;;;18.09;100.00
45357;BME280;31092;51.924;21.448;2022-09-01T12:23:37;100607.97;;;18.22;100.00
45357;BME280;31092;51.924;21.448;2022-09-01T12:26:19;100635.25;;;18.41;100.00
45357;BME280;31092;51.924;21.448;2022-09-01T12:28:46;100641.97;;;18.46;100.00
45357;BME280;31092;51.924;21.448;2022-09-01T12:31:20;100650.81;;;18.54;100.00
45357;BME280;31092;51.924;21.448;2022-09-01T12:33:47;100643.88;;;18.58;100.00
45357;BME280;31092;51.924;21.448;2022-09-01T12:36:25;100651.66;;;18.61;100.00
45357;BME280;31092;51.924;21.448;2022-09-01T12:38:54;100639.91;;;18.54;100.00
45357;BME280;31092;51.924;21.448;2022-09-01T12:41:25;100584.25;;;18.15;100.00
45357;BME280;31092;51.924;21.448;2022-09-01T12:43:51;100631.28;;;18.44;100.00
45357;BME280;31092;51.924;21.448;2022-09-01T12:46:52;100639.69;;;18.69;100.00
45357;BME280;31092;51.924;21.448;2022-09-01T12:49:22;100640.28;;;19.31;100.00
45357;BME280;31092;51.924;21.448;2022-09-01T12:54:36;100548.41;;;19.95;100.00
45357;BME280;31092;51.924;21.448;2022-09-01T12:57:03;100609.03;;;20.55;98.29
45357;BME280;31092;51.924;21.448;2022-09-01T12:59:29;100607.75;;;20.83;95.25
45357;BME280;31092;51.924;21.448;2022-09-01T13:01:55;100545.22;;;20.61;87.04
45357;BME280;31092;51.924;21.448;2022-09-01T13:04:27;100615.81;;;21.02;88.17
45357;BME280;31092;51.924;21.448;2022-09-01T13:07:00;100593.84;;;21.27;87.37
45357;BME280;31092;51.924;21.448;2022-09-01T13:09:25;100531.94;;;20.83;85.04
45357;BME280;31092;51.924;21.448;2022-09-01T13:11:51;100553.09;;;20.94;85.10
45357;BME280;31092;51.924;21.448;2022-09-01T13:14:17;100613.53;;;21.18;81.87
45357;BME280;31092;51.924;21.448;2022-09-01T13:16:44;100556.84;;;20.25;82.22
45357;BME280;31092;51.924;21.448;2022-09-01T13:19:10;100573.16;;;19.75;86.05
45357;BME280;31092;51.924;21.448;2022-09-01T13:21:36;100632.88;;;19.65;89.96
45357;BME280;31092;51.924;21.448;2022-09-01T13:24:04;100566.41;;;18.99;91.16
45357;BME280;31092;51.924;21.448;2022-09-01T13:26:30;100612.41;;;19.02;93.51
45357;BME280;31092;51.924;21.448;2022-09-01T13:29:06;100538.75;;;18.29;94.80
45357;BME280;31092;51.924;21.448;2022-09-01T13:31:31;100555.53;;;18.33;96.17
45357;BME280;31092;51.924;21.448;2022-09-01T13:34:17;100625.22;;;18.95;96.36
45357;BME280;31092;51.924;21.448;2022-09-01T13:39:20;100549.16;;;19.19;94.39
45357;BME280;31092;51.924;21.448;2022-09-01T13:41:46;100613.22;;;19.88;92.57
45357;BME280;31092;51.924;21.448;2022-09-01T13:44:12;100614.78;;;20.08;91.53
45357;BME280;31092;51.924;21.448;2022-09-01T13:46:38;100599.06;;;20.04;84.26
45357;BME280;31092;51.924;21.448;2022-09-01T13:49:03;100547.25;;;19.77;87.11
45357;BME280;31092;51.924;21.448;2022-09-01T13:51:29;100528.53;;;19.74;85.17
45357;BME280;31092;51.924;21.448;2022-09-01T13:53:55;100519.31;;;19.75;83.84
45357;BME280;31092;51.924;21.448;2022-09-01T13:56:21;100606.50;;;20.22;85.78